createdAt,value
2022-12-13T00:01:58.776Z,-1.40
2022-12-13T00:04:26.801Z,-1.42
2022-12-13T00:06:54.350Z,-1.45
2022-12-13T00:09:22.403Z,-1.49
2022-12-13T00:11:50.532Z,-1.44
2022-12-13T00:14:18.478Z,-1.40
2022-12-13T00:16:49.161Z,-1.36
2022-12-13T00:19:18.240Z,-1.32
2022-12-13T00:21:45.758Z,-1.28
2022-12-13T00:24:13.652Z,-1.29
2022-12-13T00:26:40.938Z,-1.26
2022-12-13T00:29:08.744Z,-1.20
2022-12-13T00:31:58.721Z,-1.22
2022-12-13T00:34:24.901Z,-1.22
2022-12-13T00:36:54.967Z,-1.18
2022-12-13T00:39:22.521Z,-1.16
2022-12-13T00:41:49.749Z,-1.28
2022-12-13T00:44:22.382Z,-1.32
2022-12-13T00:46:51.775Z,-1.18
2022-12-13T00:49:19.810Z,-1.09
2022-12-13T00:51:49.406Z,-1.27
2022-12-13T00:54:17.079Z,-1.36
2022-12-13T00:56:44.344Z,-1.37
2022-12-13T00:59:15.140Z,-1.26
2022-12-13T01:01:42.447Z,-1.23
2022-12-13T01:04:10.969Z,-1.19
2022-12-13T01:06:46.902Z,-1.27
2022-12-13T01:09:28.719Z,-1.24
2022-12-13T01:12:04.519Z,-1.20
2022-12-13T01:14:32.014Z,-1.27
2022-12-13T01:16:59.191Z,-1.17
2022-12-13T01:19:28.736Z,-1.17
2022-12-13T01:22:05.822Z,-1.17
2022-12-13T01:24:34.520Z,-1.45
2022-12-13T01:27:01.947Z,-1.43
2022-12-13T01:29:29.462Z,-1.51
2022-12-13T01:31:56.847Z,-1.52
2022-12-13T01:34:26.488Z,-1.55
2022-12-13T01:36:58.481Z,-1.56
2022-12-13T01:39:27.723Z,-1.55
2022-12-13T01:41:59.650Z,-1.55
2022-12-13T01:44:55.622Z,-1.81
2022-12-13T01:47:42.610Z,-1.91
2022-12-13T01:50:51.191Z,-1.97
2022-12-13T01:53:27.765Z,-1.98
2022-12-13T01:56:03.557Z,-1.99
2022-12-13T01:58:31.294Z,-1.99
2022-12-13T02:01:02.664Z,-1.88
2022-12-13T02:03:30.067Z,-1.79
2022-12-13T02:06:17.354Z,-1.78
2022-12-13T02:08:46.964Z,-1.84
2022-12-13T02:11:15.681Z,-1.89
2022-12-13T02:13:43.201Z,-1.85
2022-12-13T02:17:07.484Z,-1.82
2022-12-13T02:19:58.891Z,-1.67
2022-12-13T02:23:10.877Z,-1.54
2022-12-13T02:26:35.893Z,-1.34
2022-12-13T02:29:31.207Z,-1.33
2022-12-13T02:32:44.452Z,-1.49
2022-12-13T02:35:39.805Z,-1.52
2022-12-13T02:39:03.580Z,-1.46
2022-12-13T02:44:40.541Z,-1.51
2022-12-13T02:47:22.613Z,-1.47
2022-12-13T02:50:00.276Z,-1.49
2022-12-13T02:52:31.653Z,-1.48
2022-12-13T02:54:59.596Z,-1.43
2022-12-13T02:57:41.828Z,-1.35
2022-12-13T03:00:19.183Z,-1.34
2022-12-13T03:02:56.991Z,-1.41
2022-12-13T03:06:33.645Z,-1.32
2022-12-13T03:09:38.667Z,-1.34
2022-12-13T03:13:02.845Z,-1.36
2022-12-13T03:15:53.053Z,-1.31
2022-12-13T03:18:25.105Z,-1.31
2022-12-13T03:20:58.191Z,-1.23
2022-12-13T03:23:27.389Z,-1.27
2022-12-13T03:26:26.784Z,-1.35
2022-12-13T03:28:54.321Z,-1.38
2022-12-13T03:31:21.998Z,-1.38
2022-12-13T03:33:49.401Z,-1.36
2022-12-13T03:36:18.991Z,-1.34
2022-12-13T03:38:52.403Z,-1.33
2022-12-13T03:41:31.207Z,-1.29
2022-12-13T03:44:06.354Z,-1.28
2022-12-13T03:46:33.631Z,-1.24
2022-12-13T03:49:01.619Z,-1.21
2022-12-13T03:51:28.972Z,-1.19
2022-12-13T03:53:57.477Z,-1.15
2022-12-13T03:56:26.239Z,-1.16
2022-12-13T03:58:53.734Z,-1.17
2022-12-13T04:01:22.107Z,-1.17
2022-12-13T04:03:49.633Z,-1.14
2022-12-13T04:06:22.399Z,-1.09
2022-12-13T04:08:52.474Z,-1.05
2022-12-13T04:11:42.725Z,-1.01
2022-12-13T04:14:12.019Z,-0.99
2022-12-13T04:16:39.517Z,-0.94
2022-12-13T04:19:07.501Z,-0.91
2022-12-13T04:21:34.930Z,-0.90
2022-12-13T04:24:02.075Z,-0.86
2022-12-13T04:26:29.812Z,-0.82
2022-12-13T04:28:57.328Z,-0.81
2022-12-13T04:31:24.716Z,-0.76
2022-12-13T04:33:52.027Z,-0.72
2022-12-13T04:36:32.047Z,-0.71
2022-12-13T04:39:03.224Z,-0.67
2022-12-13T04:41:35.819Z,-0.73
2022-12-13T04:44:06.119Z,-0.76
2022-12-13T04:46:34.357Z,-0.76
2022-12-13T04:49:02.107Z,-0.81
2022-12-13T04:51:29.416Z,-0.76
2022-12-13T04:53:57.476Z,-0.76
2022-12-13T04:56:44.721Z,-0.76
2022-12-13T04:59:13.521Z,-0.77
2022-12-13T05:01:40.791Z,-0.77
2022-12-13T05:04:08.043Z,-0.74
2022-12-13T05:06:35.168Z,-0.71
2022-12-13T05:09:02.627Z,-0.70
2022-12-13T05:11:38.476Z,-0.72
2022-12-13T05:14:13.341Z,-0.67
2022-12-13T05:16:40.748Z,-0.65
2022-12-13T05:19:08.782Z,-0.64
2022-12-13T05:21:36.077Z,-0.64
2022-12-13T05:24:03.802Z,-0.62
2022-12-13T05:26:31.856Z,-0.58
2022-12-13T05:28:59.658Z,-0.53
2022-12-13T05:31:26.896Z,-0.44
2022-12-13T05:33:54.895Z,-0.41
2022-12-13T05:36:29.038Z,-0.43
2022-12-13T05:38:56.804Z,-0.50
2022-12-13T05:41:24.916Z,-0.53
2022-12-13T05:43:52.591Z,-0.53
2022-12-13T05:46:20.039Z,-0.51
2022-12-13T05:48:47.283Z,-0.45
2022-12-13T05:51:14.752Z,-0.46
2022-12-13T05:53:42.710Z,-0.45
2022-12-13T05:56:11.682Z,-0.51
2022-12-13T05:58:40.863Z,-0.51
2022-12-13T06:01:15.271Z,-0.52
2022-12-13T06:03:43.081Z,-0.64
2022-12-13T06:06:13.001Z,-0.65
2022-12-13T06:08:40.638Z,-0.63
2022-12-13T06:11:11.325Z,-0.61
2022-12-13T06:13:44.396Z,-0.59
2022-12-13T06:16:22.063Z,-0.54
2022-12-13T06:19:03.202Z,-0.45
2022-12-13T06:21:41.664Z,-0.42
2022-12-13T06:24:19.350Z,-0.44
2022-12-13T06:26:47.433Z,-0.36
2022-12-13T06:29:23.320Z,-0.34
2022-12-13T06:32:03.638Z,-0.34
2022-12-13T06:34:35.788Z,-0.35
2022-12-13T06:37:08.879Z,-0.44
2022-12-13T06:39:36.283Z,-0.59
2022-12-13T06:42:06.406Z,-0.61
2022-12-13T06:44:35.528Z,-0.56
2022-12-13T06:47:10.731Z,-0.47
2022-12-13T06:49:43.591Z,-0.37
2022-12-13T06:52:14.649Z,-0.32
2022-12-13T06:54:43.128Z,-0.34
2022-12-13T06:57:12.810Z,-0.39
2022-12-13T06:59:40.576Z,-0.42
2022-12-13T07:02:15.370Z,-0.39
2022-12-13T07:04:53.437Z,-0.39
2022-12-13T07:07:20.786Z,-0.28
2022-12-13T07:09:47.922Z,-0.28
2022-12-13T07:12:15.106Z,-0.23
2022-12-13T07:14:42.753Z,-0.23
2022-12-13T07:17:10.797Z,-0.20
2022-12-13T07:19:38.345Z,-0.15
2022-12-13T07:22:05.855Z,-0.22
2022-12-13T07:24:35.423Z,-0.12
2022-12-13T07:27:04.240Z,-0.31
2022-12-13T07:29:31.492Z,-0.37
2022-12-13T07:32:01.745Z,-0.35
2022-12-13T07:34:31.227Z,-0.29
2022-12-13T07:36:58.599Z,-0.24
2022-12-13T07:39:26.712Z,-0.20
2022-12-13T07:41:57.489Z,-0.19
2022-12-13T07:44:25.182Z,-0.27
2022-12-13T07:46:52.786Z,-0.26
2022-12-13T07:49:20.278Z,-0.20
2022-12-13T07:51:49.038Z,-0.10
2022-12-13T07:54:16.798Z,-0.19
2022-12-13T07:56:44.213Z,-0.23
2022-12-13T07:59:13.458Z,-0.27
2022-12-13T08:01:40.847Z,-0.22
2022-12-13T08:04:09.966Z,-0.21
2022-12-13T08:06:38.493Z,-0.14
2022-12-13T08:09:06.056Z,-0.10
2022-12-13T08:11:33.806Z,-0.04
2022-12-13T08:14:01.278Z,-0.02
2022-12-13T08:16:30.568Z,-0.05
2022-12-13T08:19:01.781Z,0.04
2022-12-13T08:24:29.804Z,-0.20
2022-12-13T08:27:03.217Z,-0.13
2022-12-13T08:29:35.853Z,-0.13
2022-12-13T08:32:07.910Z,-0.12
2022-12-13T08:34:36.247Z,-0.23
2022-12-13T08:37:05.915Z,-0.22
2022-12-13T08:39:37.099Z,-0.16
2022-12-13T08:42:20.106Z,-0.19
2022-12-13T08:44:50.854Z,-0.13
2022-12-13T08:47:26.834Z,-0.07
2022-12-13T08:50:04.061Z,-0.18
2022-12-13T08:52:39.785Z,-0.17
2022-12-13T08:55:13.807Z,-0.04
2022-12-13T08:57:43.119Z,-0.05
2022-12-13T09:00:19.472Z,0.01
2022-12-13T09:02:47.081Z,-0.13
2022-12-13T09:05:33.129Z,-0.18
2022-12-13T09:08:04.474Z,-0.15
2022-12-13T09:11:00.383Z,-0.16
2022-12-13T09:13:34.468Z,-0.07
2022-12-13T09:16:24.868Z,0.01
2022-12-13T09:18:54.929Z,0.14
2022-12-13T09:21:31.697Z,-0.16
2022-12-13T09:24:01.854Z,-0.20
2022-12-13T09:26:37.775Z,-0.05
2022-12-13T09:29:10.267Z,0.01
2022-12-13T09:31:40.510Z,0.17
2022-12-13T09:34:10.481Z,0.04
2022-12-13T09:36:38.620Z,-0.17
2022-12-13T09:39:06.417Z,-0.14
2022-12-13T09:41:49.499Z,-0.09
2022-12-13T09:44:32.188Z,0.05
2022-12-13T09:47:26.937Z,0.11
2022-12-13T09:50:15.100Z,0.11
2022-12-13T09:52:46.145Z,0.03
2022-12-13T09:55:31.238Z,0.02
2022-12-13T09:58:01.093Z,0.11
2022-12-13T10:00:36.043Z,0.18
2022-12-13T10:03:04.817Z,-0.06
2022-12-13T10:05:40.114Z,0.03
2022-12-13T10:08:15.506Z,0.12
2022-12-13T10:10:44.637Z,0.17
2022-12-13T10:14:01.712Z,0.28
2022-12-13T10:16:35.669Z,0.28
2022-12-13T10:19:37.239Z,0.31
2022-12-13T10:22:11.929Z,0.39
2022-12-13T10:25:05.828Z,0.44
2022-12-13T10:27:45.174Z,0.32
2022-12-13T10:30:28.042Z,0.33
2022-12-13T10:33:03.736Z,0.29
2022-12-13T10:35:39.766Z,0.04
2022-12-13T10:38:16.531Z,0.10
2022-12-13T10:40:49.229Z,0.08
2022-12-13T10:43:27.204Z,0.09
2022-12-13T10:46:01.146Z,0.28
2022-12-13T10:48:50.635Z,0.38
2022-12-13T10:51:22.872Z,0.46
2022-12-13T10:53:59.107Z,0.37
2022-12-13T10:56:47.627Z,0.48
2022-12-13T10:59:17.957Z,0.46
2022-12-13T11:01:45.491Z,0.27
2022-12-13T11:04:35.018Z,0.35
2022-12-13T11:07:32.720Z,0.48
2022-12-13T11:10:26.667Z,0.35
2022-12-13T11:13:03.703Z,0.19
2022-12-13T11:15:35.095Z,0.21
2022-12-13T11:18:19.154Z,0.21
2022-12-13T11:21:03.538Z,0.25
2022-12-13T11:23:42.765Z,0.34
2022-12-13T11:26:24.601Z,0.28
2022-12-13T11:29:30.678Z,0.34
2022-12-13T11:32:22.521Z,0.35
2022-12-13T11:35:31.392Z,0.33
2022-12-13T11:38:36.408Z,0.22
2022-12-13T11:41:56.756Z,0.45
2022-12-13T11:45:04.876Z,0.37
2022-12-13T11:47:44.197Z,0.40
2022-12-13T11:50:33.545Z,0.46
2022-12-13T11:54:03.511Z,0.63
2022-12-13T11:56:38.966Z,0.77
2022-12-13T12:00:02.272Z,0.74
2022-12-13T12:02:40.854Z,0.59
2022-12-13T12:05:28.820Z,0.64
2022-12-13T12:08:32.400Z,0.58
2022-12-13T12:11:31.658Z,0.46
2022-12-13T12:14:54.479Z,0.45
2022-12-13T12:17:25.307Z,0.62
2022-12-13T12:19:57.764Z,0.72
2022-12-13T12:22:49.567Z,0.66
2022-12-13T12:26:06.661Z,0.77
2022-12-13T12:28:56.860Z,0.78
2022-12-13T12:31:50.407Z,0.82
2022-12-13T12:34:48.812Z,0.75
2022-12-13T12:37:45.170Z,0.90
2022-12-13T12:41:16.479Z,0.91
2022-12-13T12:43:45.678Z,1.02
2022-12-13T12:47:19.239Z,1.04
2022-12-13T12:50:26.678Z,0.99
2022-12-13T12:53:21.515Z,1.02
2022-12-13T12:56:05.321Z,1.04
2022-12-13T12:59:03.168Z,1.01
2022-12-13T13:02:17.374Z,0.94
2022-12-13T13:04:56.360Z,0.95
2022-12-13T13:07:39.624Z,0.97
2022-12-13T13:10:16.616Z,0.92
2022-12-13T13:12:53.628Z,1.05
2022-12-13T13:15:38.962Z,1.06
2022-12-13T13:18:52.560Z,1.11
2022-12-13T13:22:02.072Z,1.07
2022-12-13T13:24:33.075Z,0.94
2022-12-13T13:27:09.270Z,0.93
2022-12-13T13:29:43.366Z,0.85
2022-12-13T13:32:11.313Z,0.92
2022-12-13T13:34:49.398Z,1.05
2022-12-13T13:37:29.228Z,1.10
2022-12-13T13:40:30.434Z,1.04
2022-12-13T13:43:10.938Z,1.04
2022-12-13T13:46:11.512Z,1.10
2022-12-13T13:48:59.446Z,1.06
2022-12-13T13:52:23.895Z,1.07
2022-12-13T13:55:28.569Z,1.00
2022-12-13T13:58:43.090Z,0.90
2022-12-13T14:02:02.528Z,1.07
2022-12-13T14:05:08.393Z,0.99
2022-12-13T14:08:21.011Z,0.95
2022-12-13T14:11:47.003Z,0.96
2022-12-13T14:14:49.807Z,0.96
2022-12-13T14:18:14.011Z,1.01
2022-12-13T14:21:29.417Z,0.80
2022-12-13T14:24:52.084Z,0.73
2022-12-13T14:27:36.201Z,0.71
2022-12-13T14:30:28.656Z,0.76
2022-12-13T14:32:54.220Z,0.76
2022-12-13T14:35:29.333Z,0.66
2022-12-13T14:38:25.677Z,0.67
2022-12-13T14:40:58.582Z,0.67
2022-12-13T14:43:33.942Z,0.73
2022-12-13T14:46:08.785Z,0.77
2022-12-13T14:48:50.499Z,0.67
2022-12-13T14:51:35.016Z,0.63
2022-12-13T14:54:05.764Z,0.55
2022-12-13T14:56:33.747Z,0.56
2022-12-13T14:59:11.059Z,0.57
2022-12-13T15:01:40.914Z,0.59
2022-12-13T15:04:30.118Z,0.58
2022-12-13T15:07:32.857Z,0.56
2022-12-13T15:10:22.423Z,0.74
2022-12-13T15:12:53.583Z,0.66
2022-12-13T15:15:36.711Z,0.60
2022-12-13T15:18:09.991Z,0.63
2022-12-13T15:20:43.124Z,0.61
2022-12-13T15:23:30.773Z,0.56
2022-12-13T15:26:28.976Z,0.53
2022-12-13T15:29:09.578Z,0.41
2022-12-13T15:31:40.592Z,0.44
2022-12-13T15:34:31.057Z,0.42
2022-12-13T15:37:05.880Z,0.51
2022-12-13T15:39:39.999Z,0.53
2022-12-13T15:42:33.918Z,0.62
2022-12-13T15:45:19.047Z,0.48
2022-12-13T15:47:49.308Z,0.45
2022-12-13T15:50:45.472Z,0.39
2022-12-13T15:53:29.339Z,0.38
2022-12-13T15:55:57.006Z,0.34
2022-12-13T15:58:33.951Z,0.31
2022-12-13T16:01:05.280Z,0.36
2022-12-13T16:03:47.233Z,0.36
2022-12-13T16:06:22.392Z,0.36
2022-12-13T16:08:58.736Z,0.36
2022-12-13T16:11:48.541Z,0.21
2022-12-13T16:14:31.480Z,0.20
2022-12-13T16:17:26.176Z,0.20
2022-12-13T16:19:56.058Z,0.24
2022-12-13T16:22:24.003Z,0.28
2022-12-13T16:24:52.794Z,0.28
2022-12-13T16:27:20.527Z,0.22
2022-12-13T16:29:47.885Z,0.30
2022-12-13T16:32:15.309Z,0.31
2022-12-13T16:34:42.605Z,0.33
2022-12-13T16:37:25.742Z,0.35
2022-12-13T16:39:56.803Z,0.35
2022-12-13T16:42:25.950Z,0.34
2022-12-13T16:45:24.741Z,0.34
2022-12-13T16:47:49.060Z,0.36
2022-12-13T16:50:20.781Z,0.34
2022-12-13T16:52:49.010Z,0.36
2022-12-13T16:55:16.659Z,0.32
2022-12-13T16:58:00.400Z,0.37
2022-12-13T17:00:29.559Z,0.45
2022-12-13T17:02:59.956Z,0.41
2022-12-13T17:05:29.436Z,0.38
2022-12-13T17:07:56.828Z,0.36
2022-12-13T17:10:24.412Z,0.35
2022-12-13T17:12:51.673Z,0.32
2022-12-13T17:15:19.197Z,0.33
2022-12-13T17:17:47.642Z,0.30
2022-12-13T17:20:18.170Z,0.27
2022-12-13T17:22:46.624Z,0.27
2022-12-13T17:25:14.603Z,0.23
2022-12-13T17:27:42.284Z,0.25
2022-12-13T17:30:16.539Z,0.21
2022-12-13T17:32:44.864Z,0.23
2022-12-13T17:35:17.901Z,0.26
2022-12-13T17:37:45.699Z,0.29
2022-12-13T17:40:13.484Z,0.24
2022-12-13T17:42:40.704Z,0.26
2022-12-13T17:45:08.482Z,0.27
2022-12-13T17:47:36.427Z,0.32
2022-12-13T17:50:04.143Z,0.33
2022-12-13T17:52:31.416Z,0.33
2022-12-13T17:55:00.849Z,0.33
2022-12-13T17:57:34.659Z,0.33
2022-12-13T18:00:04.350Z,0.32
2022-12-13T18:02:39.882Z,0.29
2022-12-13T18:05:09.368Z,0.28
2022-12-13T18:07:39.205Z,0.24
2022-12-13T18:10:07.821Z,0.26
2022-12-13T18:12:35.009Z,0.27
2022-12-13T18:15:02.193Z,0.24
2022-12-13T18:18:08.783Z,0.25
2022-12-13T18:20:16.744Z,0.23
2022-12-13T18:22:49.753Z,0.22
2022-12-13T18:25:18.625Z,0.22
2022-12-13T18:27:45.863Z,0.20
2022-12-13T18:30:13.613Z,0.19
2022-12-13T18:32:41.900Z,0.11
2022-12-13T18:35:09.324Z,0.10
2022-12-13T18:37:36.559Z,0.13
2022-12-13T18:40:06.113Z,0.13
2022-12-13T18:42:34.655Z,0.20
2022-12-13T18:45:01.996Z,0.18
2022-12-13T18:47:29.541Z,0.18
2022-12-13T18:49:56.906Z,0.20
2022-12-13T18:52:24.450Z,0.22
2022-12-13T18:54:54.644Z,0.22
2022-12-13T18:57:22.143Z,0.23
2022-12-13T18:59:54.227Z,0.22
2022-12-13T19:02:22.245Z,0.18
2022-12-13T19:04:55.281Z,0.17
2022-12-13T19:07:23.107Z,0.12
2022-12-13T19:09:54.675Z,0.16
2022-12-13T19:12:23.635Z,0.17
2022-12-13T19:14:54.686Z,0.12
2022-12-13T19:17:23.510Z,0.16
2022-12-13T19:19:50.823Z,0.10
2022-12-13T19:22:18.121Z,0.06
2022-12-13T19:24:45.556Z,0.03
2022-12-13T19:27:12.975Z,-0.02
2022-12-13T19:29:40.185Z,-0.01
2022-12-13T19:32:07.602Z,0.04
2022-12-13T19:34:34.893Z,0.04
2022-12-13T19:37:06.349Z,0.04
2022-12-13T19:39:34.046Z,0.05
2022-12-13T19:42:01.227Z,0.03
2022-12-13T19:44:28.522Z,0.06
2022-12-13T19:46:56.205Z,0.07
2022-12-13T19:49:23.567Z,0.10
2022-12-13T19:51:52.090Z,0.10
2022-12-13T19:54:22.387Z,0.11
2022-12-13T19:56:49.711Z,0.12
2022-12-13T19:59:16.914Z,0.16
2022-12-13T20:01:45.241Z,0.14
2022-12-13T20:04:13.928Z,0.11
2022-12-13T20:06:41.183Z,0.13
2022-12-13T20:09:08.974Z,0.12
2022-12-13T20:11:36.333Z,0.15
2022-12-13T20:14:03.609Z,0.19
2022-12-13T20:16:30.912Z,0.20
2022-12-13T20:19:00.696Z,0.08
2022-12-13T20:21:29.689Z,0.07
2022-12-13T20:23:57.953Z,0.09
2022-12-13T20:26:29.976Z,0.20
2022-12-13T20:28:57.714Z,0.22
2022-12-13T20:31:31.206Z,0.23
2022-12-13T20:34:03.207Z,0.26
2022-12-13T20:36:31.506Z,0.24
2022-12-13T20:39:01.884Z,0.21
2022-12-13T20:41:33.437Z,0.24
2022-12-13T20:44:05.445Z,0.22
2022-12-13T20:46:33.235Z,0.25
2022-12-13T20:49:05.560Z,0.24
2022-12-13T20:51:35.658Z,0.24
2022-12-13T20:54:03.902Z,0.27
2022-12-13T20:56:38.198Z,0.26
2022-12-13T20:59:10.382Z,0.20
2022-12-13T21:01:40.569Z,0.19
2022-12-13T21:04:10.416Z,0.26
2022-12-13T21:06:43.138Z,0.29
2022-12-13T21:09:11.884Z,0.28
2022-12-13T21:11:48.707Z,0.26
2022-12-13T21:14:36.839Z,0.32
2022-12-13T21:17:09.835Z,0.31
2022-12-13T21:19:40.147Z,0.27
2022-12-13T21:22:08.230Z,0.29
2022-12-13T21:24:35.402Z,0.37
2022-12-13T21:27:02.705Z,0.41
2022-12-13T21:29:29.986Z,0.40
2022-12-13T21:31:57.205Z,0.34
2022-12-13T21:34:24.721Z,0.38
2022-12-13T21:36:52.861Z,0.37
2022-12-13T21:39:30.885Z,0.33
2022-12-13T21:41:58.435Z,0.39
2022-12-13T21:44:26.695Z,0.47
2022-12-13T21:49:41.255Z,0.53
2022-12-13T21:52:09.269Z,0.46
2022-12-13T21:54:36.442Z,0.49
2022-12-13T21:57:22.626Z,0.47
2022-12-13T21:59:51.505Z,0.48
2022-12-13T22:02:19.588Z,0.45
2022-12-13T22:04:56.119Z,0.47
2022-12-13T22:07:31.824Z,0.42
2022-12-13T22:10:02.812Z,0.37
2022-12-13T22:12:38.382Z,0.39
2022-12-13T22:15:10.254Z,0.39
2022-12-13T22:17:38.398Z,0.46
2022-12-13T22:20:11.546Z,0.55
2022-12-13T22:22:41.678Z,0.55
2022-12-13T22:25:10.385Z,0.58
2022-12-13T22:27:37.783Z,0.58
2022-12-13T22:30:06.524Z,0.59
2022-12-13T22:32:34.014Z,0.56
2022-12-13T22:35:01.268Z,0.56
2022-12-13T22:37:29.993Z,0.54
2022-12-13T22:39:57.187Z,0.56
2022-12-13T22:42:24.695Z,0.54
2022-12-13T22:44:51.951Z,0.48
2022-12-13T22:47:19.597Z,0.53
2022-12-13T22:49:48.883Z,0.52
2022-12-13T22:52:17.303Z,0.51
2022-12-13T22:54:44.639Z,0.56
2022-12-13T22:57:12.088Z,0.47
2022-12-13T22:59:39.349Z,0.47
2022-12-13T23:02:06.647Z,0.49
2022-12-13T23:04:33.930Z,0.55
2022-12-13T23:07:01.252Z,0.58
2022-12-13T23:09:28.440Z,0.54
2022-12-13T23:12:14.451Z,0.49
2022-12-13T23:14:41.693Z,0.44
2022-12-13T23:17:09.060Z,0.43
2022-12-13T23:19:49.138Z,0.41
2022-12-13T23:22:24.288Z,0.42
2022-12-13T23:24:52.908Z,0.49
2022-12-13T23:27:23.204Z,0.51
2022-12-13T23:29:50.400Z,0.46
2022-12-13T23:32:17.832Z,0.41
2022-12-13T23:34:45.145Z,0.34
2022-12-13T23:37:12.570Z,0.32
2022-12-13T23:39:41.451Z,0.31
2022-12-13T23:42:09.084Z,0.32
2022-12-13T23:44:36.612Z,0.28
2022-12-13T23:47:04.014Z,0.27
2022-12-13T23:49:31.281Z,0.28
2022-12-13T23:51:58.521Z,0.30
2022-12-13T23:54:26.946Z,0.32
2022-12-13T23:56:54.460Z,0.34
2022-12-13T23:59:21.879Z,0.35
